createdAt,value
2019-01-31T14:42:52.565Z,6864.00
2019-01-31T14:43:52.295Z,6596.00
2019-01-31T14:44:52.269Z,6304.00
2019-01-31T14:45:52.378Z,6096.00
2019-01-31T14:46:53.149Z,5972.00
2019-01-31T14:47:52.264Z,5900.00
2019-01-31T14:48:52.226Z,5852.00
2019-01-31T14:49:52.215Z,5800.00
2019-01-31T14:50:52.204Z,5724.00
2019-01-31T14:51:52.202Z,5616.00
2019-01-31T14:52:52.225Z,5520.00
2019-01-31T14:53:52.196Z,5496.00
2019-01-31T14:54:52.163Z,5528.00
2019-01-31T14:55:52.176Z,5588.00
2019-01-31T14:56:52.150Z,5652.00
2019-01-31T14:57:52.146Z,5712.00
2019-01-31T14:58:52.119Z,5784.00
2019-01-31T14:59:52.113Z,5844.00
2019-01-31T15:00:52.103Z,5932.00
2019-01-31T15:01:52.086Z,6048.00
2019-01-31T15:02:52.103Z,6168.00
2019-01-31T15:03:52.066Z,6300.00
2019-01-31T15:04:52.054Z,6412.00
2019-01-31T15:05:52.044Z,6472.00
2019-01-31T15:09:32.885Z,6280.00
2019-01-31T15:10:32.867Z,6200.00
2019-01-31T15:11:32.852Z,6132.00
2019-01-31T15:12:32.844Z,6032.00
2019-01-31T15:13:32.903Z,5844.00
2019-01-31T15:14:32.824Z,5576.00
2019-01-31T15:15:32.808Z,5252.00
2019-01-31T15:16:32.829Z,4920.00
2019-01-31T15:17:32.793Z,4656.00
2019-01-31T15:18:32.791Z,4488.00
2019-01-31T15:19:32.770Z,4444.00
2019-01-31T15:20:37.621Z,4508.00
2019-01-31T15:21:33.767Z,4648.00
2019-01-31T15:22:32.751Z,4696.00
2019-01-31T15:23:43.563Z,4512.00
2019-01-31T15:24:32.711Z,4160.00
2019-01-31T15:25:32.705Z,3832.00
2019-01-31T15:26:32.801Z,3472.00
2019-01-31T15:27:32.685Z,3112.00
2019-01-31T15:28:32.702Z,2800.00
2019-01-31T15:29:35.100Z,2600.00
2019-01-31T15:30:34.609Z,2452.00
2019-01-31T15:33:13.017Z,2236.00
2019-01-31T15:34:37.394Z,2228.00
2019-01-31T15:35:29.172Z,2236.00
2019-01-31T15:38:26.837Z,2212.00
2019-01-31T15:41:41.848Z,2120.00
2019-01-31T15:42:32.764Z,2092.00
2019-01-31T15:45:05.464Z,2012.00
2019-01-31T15:48:18.888Z,1780.00
2019-01-31T15:49:52.875Z,1712.00
2019-01-31T15:50:20.932Z,1648.00
2019-01-31T15:51:33.377Z,1608.00
2019-01-31T15:52:33.671Z,1584.00
2019-01-31T16:00:08.500Z,1524.00
2019-01-31T16:00:53.663Z,1504.00
2019-01-31T16:01:26.074Z,1456.00
2019-01-31T16:02:18.709Z,1380.00
2019-01-31T16:04:14.688Z,1196.00
2019-01-31T16:05:22.563Z,1104.00
2019-01-31T16:06:39.786Z,1016.00
2019-01-31T16:07:36.661Z,936.00
2019-01-31T16:08:36.995Z,868.00
2019-01-31T16:11:17.514Z,732.00
2019-01-31T16:11:31.851Z,676.00
2019-01-31T16:14:25.852Z,552.00
2019-01-31T16:14:59.451Z,496.00
2019-01-31T16:17:39.647Z,368.00
2019-01-31T16:20:11.400Z,272.00
2019-01-31T16:20:54.387Z,232.00
2019-01-31T16:21:49.147Z,196.00
2019-01-31T16:23:09.660Z,164.00
2019-01-31T16:24:33.242Z,140.00
2019-01-31T16:25:37.499Z,124.00
2019-01-31T16:26:01.905Z,104.00
2019-01-31T16:26:53.339Z,72.00
2019-01-31T16:27:51.920Z,64.00
2019-01-31T16:33:13.953Z,52.00
2019-01-31T16:33:52.092Z,48.00
2019-01-31T16:35:18.684Z,48.00
2019-01-31T16:35:56.698Z,40.00
2019-01-31T16:36:53.037Z,40.00
2019-01-31T16:38:31.913Z,36.00
2019-01-31T16:38:44.120Z,28.00
2019-01-31T16:39:51.738Z,24.00
2019-01-31T16:41:07.199Z,20.00
2019-01-31T16:41:42.004Z,16.00
2019-01-31T16:43:22.871Z,16.00
2019-01-31T16:43:47.910Z,12.00
2019-01-31T16:44:51.473Z,12.00
2019-01-31T16:45:35.920Z,12.00
2019-01-31T16:46:41.417Z,8.00
2019-01-31T16:47:56.748Z,8.00
2019-01-31T16:48:56.670Z,8.00
2019-01-31T16:49:35.984Z,4.00
2019-01-31T16:50:34.801Z,0.00
2019-01-31T16:51:35.404Z,4.00
2019-01-31T16:52:34.822Z,4.00
2019-01-31T16:53:34.764Z,0.00
2019-01-31T16:54:34.768Z,0.00
2019-01-31T16:55:34.746Z,0.00
2019-01-31T16:56:34.745Z,0.00
2019-01-31T16:57:34.721Z,0.00
2019-01-31T16:58:34.711Z,0.00
2019-01-31T16:59:34.768Z,0.00
2019-01-31T17:00:34.780Z,0.00
2019-01-31T17:01:34.682Z,0.00
2019-01-31T17:02:34.668Z,0.00
2019-01-31T17:03:34.662Z,0.00
2019-01-31T17:04:34.655Z,0.00
2019-01-31T17:05:34.658Z,0.00
2019-01-31T17:06:34.628Z,0.00
2019-01-31T17:07:35.820Z,0.00
2019-01-31T17:08:34.607Z,0.00
2019-01-31T17:09:34.598Z,0.00
2019-01-31T17:10:34.599Z,0.00
2019-01-31T17:11:35.139Z,0.00
2019-01-31T17:12:34.564Z,0.00
2019-01-31T17:13:34.553Z,0.00
2019-01-31T17:14:34.544Z,0.00
2019-01-31T17:15:34.556Z,0.00
2019-01-31T17:16:34.546Z,0.00
2019-01-31T17:17:34.516Z,0.00
2019-01-31T17:18:34.513Z,0.00
2019-01-31T17:19:42.573Z,0.00
2019-01-31T17:20:54.359Z,0.00
2019-01-31T17:24:36.565Z,0.00
2019-01-31T17:25:28.895Z,0.00
2019-01-31T17:26:16.919Z,0.00
2019-01-31T17:27:16.906Z,0.00
2019-01-31T17:28:16.891Z,0.00
2019-01-31T17:29:16.906Z,0.00
2019-01-31T17:30:16.893Z,0.00
2019-01-31T17:31:16.872Z,0.00
2019-01-31T17:32:16.858Z,0.00
2019-01-31T17:33:16.847Z,0.00
2019-01-31T17:34:16.828Z,0.00
2019-01-31T17:35:16.817Z,0.00
2019-01-31T17:36:16.820Z,0.00
2019-01-31T17:37:16.898Z,0.00
2019-01-31T17:38:16.787Z,0.00
2019-01-31T17:39:16.776Z,0.00
2019-01-31T17:40:16.800Z,0.00
2019-01-31T17:41:16.783Z,0.00
2019-01-31T17:42:16.744Z,0.00
2019-01-31T17:43:16.734Z,0.00
2019-01-31T17:44:16.723Z,0.00
2019-01-31T17:45:16.717Z,0.00
2019-01-31T17:46:16.723Z,0.00
2019-01-31T17:47:16.691Z,0.00
2019-01-31T17:48:16.681Z,0.00
2019-01-31T17:49:16.673Z,0.00
2019-01-31T17:50:16.660Z,0.00
2019-01-31T17:51:16.692Z,0.00
2019-01-31T17:52:16.638Z,0.00
2019-01-31T17:53:16.627Z,0.00
2019-01-31T17:54:16.618Z,0.00
2019-01-31T17:55:16.607Z,0.00
2019-01-31T17:56:16.608Z,0.00
2019-01-31T17:57:16.603Z,0.00
2019-01-31T17:58:16.580Z,0.00
2019-01-31T17:59:16.564Z,0.00
2019-01-31T18:00:16.554Z,0.00
2019-01-31T18:01:16.568Z,0.00
2019-01-31T18:02:16.532Z,0.00
2019-01-31T18:03:16.537Z,0.00
2019-01-31T18:04:16.517Z,0.00
2019-01-31T18:05:16.501Z,0.00
2019-01-31T18:06:18.834Z,0.00
2019-01-31T18:07:16.481Z,0.00
2019-01-31T18:08:16.473Z,0.00
2019-01-31T18:09:16.472Z,0.00
2019-01-31T18:10:16.451Z,0.00
2019-01-31T18:11:16.454Z,0.00
2019-01-31T18:12:16.428Z,0.00
2019-01-31T18:13:16.424Z,0.00
2019-01-31T18:14:16.408Z,0.00
2019-01-31T18:15:16.397Z,0.00
2019-01-31T18:16:16.411Z,0.00
2019-01-31T18:17:16.387Z,0.00
2019-01-31T18:18:16.382Z,0.00
2019-01-31T18:19:16.356Z,0.00
2019-01-31T18:20:16.343Z,0.00
2019-01-31T18:21:16.346Z,0.00
2019-01-31T18:22:16.333Z,0.00
2019-01-31T18:23:16.321Z,0.00
2019-01-31T18:24:16.300Z,0.00
2019-01-31T18:25:19.527Z,0.00
2019-01-31T18:26:20.194Z,0.00
2019-01-31T18:27:28.274Z,0.00
2019-01-31T18:28:53.978Z,0.00
2019-01-31T18:32:07.857Z,0.00
2019-01-31T18:33:07.808Z,0.00
2019-01-31T18:34:07.799Z,0.00
2019-01-31T18:35:07.783Z,0.00
2019-01-31T18:36:07.770Z,0.00
2019-01-31T18:37:07.780Z,0.00
2019-01-31T18:38:07.756Z,0.00
2019-01-31T18:39:07.738Z,0.00
2019-01-31T18:40:07.738Z,0.00
2019-01-31T18:41:07.719Z,0.00
2019-01-31T18:42:07.853Z,0.00
2019-01-31T18:43:07.708Z,0.00
2019-01-31T18:44:07.685Z,0.00
2019-01-31T18:45:07.675Z,0.00
2019-01-31T18:46:07.701Z,0.00
2019-01-31T18:47:07.669Z,0.00
2019-01-31T18:48:07.646Z,0.00
2019-01-31T18:49:07.633Z,0.00
2019-01-31T18:50:07.623Z,0.00
2019-01-31T18:51:07.611Z,0.00
2019-01-31T18:52:07.636Z,0.00
2019-01-31T18:53:07.594Z,0.00
2019-01-31T18:54:07.582Z,0.00
2019-01-31T18:55:07.575Z,0.00
2019-01-31T18:56:07.587Z,0.00
2019-01-31T18:57:07.566Z,0.00
2019-01-31T18:58:07.600Z,0.00
2019-01-31T18:59:07.530Z,0.00
2019-01-31T19:00:07.519Z,0.00
2019-01-31T19:01:07.530Z,0.00
2019-01-31T19:02:07.512Z,0.00
2019-01-31T19:03:07.488Z,0.00
2019-01-31T19:04:07.481Z,0.00
2019-01-31T19:05:07.494Z,0.00
2019-01-31T19:06:07.456Z,0.00
2019-01-31T19:07:07.459Z,0.00
2019-01-31T19:08:09.043Z,0.00
2019-01-31T19:09:07.424Z,0.00
2019-01-31T19:10:07.413Z,0.00
2019-01-31T19:11:07.407Z,0.00
2019-01-31T19:12:07.881Z,0.00
2019-01-31T19:13:07.388Z,0.00
2019-01-31T19:14:07.373Z,0.00
2019-01-31T19:15:07.361Z,0.00
2019-01-31T19:16:07.380Z,0.00
2019-01-31T19:17:07.352Z,0.00
2019-01-31T19:18:07.343Z,0.00
2019-01-31T19:19:07.324Z,0.00
2019-01-31T19:20:07.311Z,0.00
2019-01-31T19:21:07.298Z,0.00
2019-01-31T19:22:07.301Z,0.00
2019-01-31T19:23:07.278Z,0.00
2019-01-31T19:24:07.282Z,0.00
2019-01-31T19:25:07.262Z,0.00
2019-01-31T19:26:07.247Z,0.00
2019-01-31T19:27:07.261Z,0.00
2019-01-31T19:28:07.226Z,0.00
2019-01-31T19:29:07.213Z,0.00
2019-01-31T19:30:07.215Z,0.00
2019-01-31T19:31:07.192Z,0.00
2019-01-31T19:32:07.182Z,0.00
2019-01-31T19:33:07.184Z,0.00
2019-01-31T19:34:07.161Z,0.00
2019-01-31T19:35:07.152Z,0.00
2019-01-31T19:36:07.143Z,0.00
2019-01-31T19:37:07.137Z,0.00
2019-01-31T19:38:07.141Z,0.00
2019-01-31T19:39:07.109Z,0.00
2019-01-31T19:40:07.099Z,0.00
2019-01-31T19:41:07.093Z,0.00
2019-01-31T19:42:07.089Z,0.00
2019-01-31T19:43:07.098Z,0.00
2019-01-31T19:44:07.096Z,0.00
2019-01-31T19:45:07.046Z,0.00
2019-01-31T19:46:16.148Z,0.00
2019-01-31T19:47:08.025Z,0.00
2019-01-31T19:48:07.120Z,0.00
2019-01-31T19:49:07.012Z,0.00
2019-01-31T19:50:06.998Z,0.00
2019-01-31T19:51:06.992Z,0.00
2019-01-31T19:52:06.976Z,0.00
2019-01-31T19:53:07.028Z,0.00
2019-01-31T19:54:06.951Z,0.00
2019-01-31T19:55:06.943Z,0.00
2019-01-31T19:56:06.933Z,0.00
2019-01-31T19:57:06.931Z,0.00
2019-01-31T19:58:06.956Z,0.00
2019-01-31T19:59:06.903Z,0.00
2019-01-31T20:00:06.897Z,0.00
2019-01-31T20:01:06.877Z,0.00
2019-01-31T20:02:06.874Z,0.00
2019-01-31T20:03:06.965Z,0.00
2019-01-31T20:04:06.859Z,0.00
2019-01-31T20:05:06.835Z,0.00
2019-01-31T20:06:06.825Z,0.00
2019-01-31T20:07:06.815Z,0.00
2019-01-31T20:08:06.818Z,0.00
2019-01-31T20:09:06.806Z,0.00
2019-01-31T20:10:06.794Z,0.00
2019-01-31T20:11:06.781Z,0.00
2019-01-31T20:12:06.764Z,0.00
2019-01-31T20:13:06.767Z,0.00
2019-01-31T20:14:06.741Z,0.00
2019-01-31T20:15:06.731Z,0.00
2019-01-31T20:16:06.722Z,0.00
2019-01-31T20:17:08.557Z,0.00
2019-01-31T20:18:06.713Z,0.00
2019-01-31T20:19:06.689Z,0.00
2019-01-31T20:20:06.689Z,0.00
2019-01-31T20:21:06.675Z,0.00
2019-01-31T20:22:06.664Z,0.00
2019-01-31T20:23:06.677Z,0.00
2019-01-31T20:24:06.637Z,0.00
2019-01-31T20:25:06.629Z,0.00
2019-01-31T20:26:06.617Z,0.00
2019-01-31T20:27:06.610Z,0.00
2019-01-31T20:28:06.606Z,0.00
2019-01-31T20:29:06.597Z,0.00
2019-01-31T20:30:06.585Z,0.00
2019-01-31T20:31:06.572Z,0.00
2019-01-31T20:32:06.556Z,0.00
2019-01-31T20:33:06.671Z,0.00
2019-01-31T20:34:06.575Z,0.00
2019-01-31T20:35:06.525Z,0.00
2019-01-31T20:36:06.511Z,0.00
2019-01-31T20:37:06.505Z,0.00
2019-01-31T20:38:06.513Z,0.00
2019-01-31T20:39:06.494Z,0.00
2019-01-31T20:40:06.468Z,0.00
2019-01-31T20:41:06.466Z,0.00
2019-01-31T20:42:06.448Z,0.00
2019-01-31T20:43:06.512Z,0.00
2019-01-31T20:44:06.470Z,0.00
2019-01-31T20:45:06.418Z,0.00
2019-01-31T20:46:06.405Z,0.00
2019-01-31T20:47:06.404Z,0.00
2019-01-31T20:48:06.389Z,0.00
2019-01-31T20:49:06.393Z,0.00
2019-01-31T20:50:06.367Z,0.00
2019-01-31T20:51:06.352Z,0.00
2019-01-31T20:52:06.342Z,0.00
2019-01-31T20:53:06.347Z,0.00
2019-01-31T20:54:06.336Z,0.00
2019-01-31T20:55:06.313Z,0.00
2019-01-31T20:56:06.320Z,0.00
2019-01-31T20:57:06.298Z,0.00
2019-01-31T20:58:06.281Z,0.00
2019-01-31T20:59:06.293Z,0.00
2019-01-31T21:00:06.262Z,0.00
2019-01-31T21:01:06.251Z,0.00
2019-01-31T21:02:06.246Z,0.00
2019-01-31T21:03:06.226Z,0.00
2019-01-31T21:04:06.242Z,0.00
2019-01-31T21:05:06.233Z,0.00
2019-01-31T21:06:06.194Z,0.00
2019-01-31T21:07:06.183Z,0.00
2019-01-31T21:08:06.175Z,0.00
2019-01-31T21:09:06.189Z,0.00
2019-01-31T21:10:06.160Z,0.00
2019-01-31T21:11:07.750Z,0.00
2019-01-31T21:12:06.133Z,0.00
2019-01-31T21:13:06.124Z,0.00
2019-01-31T21:14:06.466Z,0.00
2019-01-31T21:15:06.102Z,0.00
2019-01-31T21:16:06.117Z,0.00
2019-01-31T21:17:06.080Z,0.00
2019-01-31T21:18:06.090Z,0.00
2019-01-31T21:19:06.073Z,0.00
2019-01-31T21:20:06.049Z,0.00
2019-01-31T21:21:06.049Z,0.00
2019-01-31T21:22:06.035Z,0.00
2019-01-31T21:23:06.017Z,0.00
2019-01-31T21:24:06.020Z,0.00
2019-01-31T21:25:05.998Z,0.00
2019-01-31T21:26:05.988Z,0.00
2019-01-31T21:27:05.978Z,0.00
2019-01-31T21:28:05.980Z,0.00
2019-01-31T21:29:05.970Z,0.00
2019-01-31T21:30:05.953Z,0.00
2019-01-31T21:31:05.935Z,0.00
2019-01-31T21:32:05.926Z,0.00
2019-01-31T21:33:05.911Z,0.00
2019-01-31T21:34:05.918Z,0.00
2019-01-31T21:35:05.893Z,0.00
2019-01-31T21:36:05.881Z,0.00
2019-01-31T21:37:05.899Z,0.00
2019-01-31T21:38:05.875Z,0.00
2019-01-31T21:39:05.870Z,0.00
2019-01-31T21:40:05.842Z,0.00
2019-01-31T21:41:05.828Z,0.00
2019-01-31T21:42:07.846Z,0.00
2019-01-31T21:43:05.816Z,0.00
2019-01-31T21:44:05.820Z,0.00
2019-01-31T21:45:05.821Z,0.00
2019-01-31T21:46:05.775Z,0.00
2019-01-31T21:47:05.764Z,0.00
2019-01-31T21:48:05.757Z,0.00
2019-01-31T21:49:05.757Z,0.00
2019-01-31T21:50:05.732Z,0.00
2019-01-31T21:51:05.736Z,0.00
2019-01-31T21:52:05.712Z,0.00
2019-01-31T21:53:05.700Z,0.00
2019-01-31T21:54:05.704Z,0.00
2019-01-31T21:55:05.699Z,0.00
2019-01-31T21:56:05.670Z,0.00
2019-01-31T21:57:05.669Z,0.00
2019-01-31T21:58:05.653Z,0.00
2019-01-31T21:59:08.740Z,0.00
2019-01-31T22:00:05.627Z,0.00
2019-01-31T22:01:05.618Z,0.00
2019-01-31T22:02:05.607Z,0.00
2019-01-31T22:03:05.599Z,0.00
2019-01-31T22:04:05.647Z,0.00
2019-01-31T22:05:05.578Z,0.00
2019-01-31T22:06:05.566Z,0.00
2019-01-31T22:07:05.557Z,0.00
2019-01-31T22:08:05.546Z,0.00
2019-01-31T22:09:05.816Z,0.00
2019-01-31T22:10:05.551Z,0.00
2019-01-31T22:11:05.512Z,0.00
2019-01-31T22:12:05.501Z,0.00
2019-01-31T22:13:05.491Z,0.00
2019-01-31T22:14:05.485Z,0.00
2019-01-31T22:15:05.481Z,0.00
2019-01-31T22:16:05.473Z,0.00
2019-01-31T22:17:14.292Z,0.00
2019-01-31T22:18:06.448Z,0.00
2019-01-31T22:19:05.427Z,0.00
2019-01-31T22:20:05.428Z,0.00
2019-01-31T22:21:05.405Z,0.00
2019-01-31T22:22:05.395Z,0.00
2019-01-31T22:23:05.399Z,0.00
2019-01-31T22:24:05.382Z,0.00
2019-01-31T22:25:05.380Z,0.00
2019-01-31T22:26:05.438Z,0.00
2019-01-31T22:27:05.344Z,0.00
2019-01-31T22:28:05.346Z,0.00
2019-01-31T22:29:08.179Z,0.00
2019-01-31T22:30:05.339Z,0.00
2019-01-31T22:31:05.301Z,0.00
2019-01-31T22:32:05.291Z,0.00
2019-01-31T22:33:05.280Z,0.00
2019-01-31T22:34:05.271Z,0.00
2019-01-31T22:35:05.277Z,0.00
2019-01-31T22:36:05.267Z,0.00
2019-01-31T22:37:05.240Z,0.00
2019-01-31T22:38:05.226Z,0.00
2019-01-31T22:39:05.215Z,0.00
2019-01-31T22:40:05.220Z,0.00
2019-01-31T22:41:05.194Z,0.00
2019-01-31T22:42:05.194Z,0.00
2019-01-31T22:43:05.182Z,0.00
2019-01-31T22:44:05.164Z,0.00
2019-01-31T22:45:05.181Z,0.00
2019-01-31T22:46:05.166Z,0.00
2019-01-31T22:47:05.151Z,0.00
2019-01-31T22:48:05.123Z,0.00
2019-01-31T22:49:05.111Z,0.00
2019-01-31T22:50:05.111Z,0.00
2019-01-31T22:51:05.097Z,0.00
2019-01-31T22:52:05.079Z,0.00
2019-01-31T22:53:05.073Z,0.00
2019-01-31T22:54:05.064Z,0.00
2019-01-31T22:55:05.078Z,0.00
2019-01-31T22:56:05.036Z,0.00
2019-01-31T22:57:05.026Z,0.00
2019-01-31T22:58:05.014Z,0.00
2019-01-31T22:59:05.003Z,0.00
2019-01-31T23:00:05.008Z,0.00
2019-01-31T23:01:04.986Z,0.00
2019-01-31T23:02:04.972Z,0.00
2019-01-31T23:03:04.965Z,0.00
2019-01-31T23:04:04.951Z,0.00
2019-01-31T23:05:04.955Z,0.00
2019-01-31T23:06:04.934Z,0.00
2019-01-31T23:07:04.938Z,0.00
2019-01-31T23:08:04.910Z,0.00
2019-01-31T23:09:04.902Z,0.00
2019-01-31T23:10:04.901Z,0.00
2019-01-31T23:11:04.878Z,0.00
2019-01-31T23:12:04.870Z,0.00
2019-01-31T23:13:04.860Z,0.00
2019-01-31T23:14:04.849Z,0.00
2019-01-31T23:15:04.847Z,0.00
2019-01-31T23:16:04.837Z,0.00
2019-01-31T23:17:04.815Z,0.00
2019-01-31T23:18:04.810Z,0.00
2019-01-31T23:19:04.797Z,0.00
2019-01-31T23:20:04.793Z,0.00
2019-01-31T23:21:04.799Z,0.00
2019-01-31T23:22:04.763Z,0.00
2019-01-31T23:23:04.750Z,0.00
2019-01-31T23:24:04.746Z,0.00
2019-01-31T23:25:04.736Z,0.00
2019-01-31T23:26:04.739Z,0.00
2019-01-31T23:27:04.713Z,0.00
2019-01-31T23:28:04.700Z,0.00
2019-01-31T23:29:04.691Z,0.00
2019-01-31T23:30:04.676Z,0.00
2019-01-31T23:31:04.679Z,0.00
2019-01-31T23:32:04.655Z,0.00
2019-01-31T23:33:04.644Z,0.00
2019-01-31T23:34:04.636Z,0.00
2019-01-31T23:35:04.634Z,0.00
2019-01-31T23:36:04.638Z,0.00
2019-01-31T23:37:04.601Z,0.00
2019-01-31T23:38:04.593Z,0.00
2019-01-31T23:39:04.599Z,0.00
2019-01-31T23:40:04.570Z,0.00
2019-01-31T23:41:04.578Z,0.00
2019-01-31T23:42:04.571Z,0.00
2019-01-31T23:43:04.554Z,0.00
2019-01-31T23:44:04.532Z,0.00
2019-01-31T23:45:04.545Z,0.00
2019-01-31T23:46:04.522Z,0.00
2019-01-31T23:47:04.499Z,0.00
2019-01-31T23:48:04.486Z,0.00
2019-01-31T23:49:04.483Z,0.00
2019-01-31T23:50:04.473Z,0.00
2019-01-31T23:51:04.478Z,0.00
2019-01-31T23:52:04.460Z,0.00
2019-01-31T23:53:04.441Z,0.00
2019-01-31T23:54:04.422Z,0.00
2019-01-31T23:55:04.412Z,0.00
2019-01-31T23:56:04.417Z,0.00
2019-01-31T23:57:04.394Z,0.00
2019-01-31T23:58:04.379Z,0.00
2019-01-31T23:59:04.369Z,0.00
